Time;durP1;ratioP1;P1;durP2;ratioP2;P2;SDS_P1;SDS_P2;PMS_P1;PMS_P2;Temp;Humidity;BMP_temperature;BMP_pressure;BME280_temperature;BME280_humidity;BME280_pressure;Samples;Min_cycle;Max_cycle;Signal;HPM_P1;HPM_P2
2022/06/03 00:02:03;;;;;;;9.07;6.20;;;;;;;17.35;79.08;99302.13;4993047;28;20038;-79
2022/06/03 00:04:53;;;;;;;8.57;6.43;;;;;;;17.28;79.17;99304.16;4994465;28;20076;-79
2022/06/03 00:07:31;;;;;;;9.63;5.88;;;;;;;17.25;79.58;99293.75;4990255;28;20058;-79
2022/06/03 00:10:16;;;;;;;14.45;7.43;;;;;;;17.25;79.42;99292.00;4992884;28;20394;-79
2022/06/03 00:12:47;;;;;;;10.75;6.72;;;;;;;17.17;79.68;99299.28;5006248;28;20528;-79
2022/06/03 00:15:33;;;;;;;7.78;6.72;;;;;;;17.10;79.83;99292.56;4993860;28;20045;-77
2022/06/03 00:18:17;;;;;;;8.13;6.57;;;;;;;17.06;80.76;99296.22;4989394;28;20050;-78
2022/06/03 00:21:03;;;;;;;11.68;6.63;;;;;;;17.11;81.18;99289.03;4998653;28;20381;-79
2022/06/03 00:23:35;;;;;;;6.40;5.68;;;;;;;17.17;81.38;99290.56;5003680;28;20042;-78
2022/06/03 00:26:10;;;;;;;11.70;6.70;;;;;;;17.16;80.26;99292.34;4993896;28;20041;-78
2022/06/03 00:28:55;;;;;;;9.75;6.97;;;;;;;17.07;79.82;99276.94;4989446;28;20117;-78
2022/06/03 00:31:54;;;;;;;7.90;6.22;;;;;;;17.07;80.68;99276.94;5003492;28;20046;-79
2022/06/03 00:34:32;;;;;;;8.63;7.05;;;;;;;17.03;80.62;99270.09;4986730;28;20056;-79
2022/06/03 00:37:29;;;;;;;14.65;6.95;;;;;;;17.03;81.10;99267.47;4988420;28;20046;-79
2022/06/03 00:40:03;;;;;;;8.10;6.38;;;;;;;17.00;81.13;99268.47;4993916;28;20042;-79
2022/06/03 00:42:32;;;;;;;17.30;7.15;;;;;;;17.03;81.42;99272.72;4992555;28;20404;-78
2022/06/03 00:45:25;;;;;;;9.27;7.00;;;;;;;17.09;81.76;99274.25;5007420;28;20027;-78
2022/06/03 00:48:10;;;;;;;11.55;6.55;;;;;;;17.17;81.28;99277.44;5008681;28;20492;-78
2022/06/03 00:50:47;;;;;;;8.82;6.30;;;;;;;17.20;81.34;99275.56;5007205;28;20096;-78
2022/06/03 00:53:36;;;;;;;9.43;7.38;;;;;;;17.19;80.77;99266.00;4993425;28;20529;-78
2022/06/03 00:56:03;;;;;;;9.18;6.20;;;;;;;17.20;80.66;99256.38;4989381;28;20042;-78
2022/06/03 00:58:32;;;;;;;11.60;6.88;;;;;;;17.23;80.53;99265.00;4992996;28;20397;-79
2022/06/03 01:01:09;;;;;;;12.35;7.32;;;;;;;17.23;80.35;99270.22;5008207;28;20068;-78
2022/06/03 01:03:38;;;;;;;14.40;7.20;;;;;;;17.25;80.34;99271.00;4997605;28;20069;-79
2022/06/03 01:06:38;;;;;;;11.35;6.78;;;;;;;17.34;80.41;99269.81;5008099;28;20401;-79
2022/06/03 01:09:25;;;;;;;11.13;6.43;;;;;;;17.31;79.64;99266.44;4992796;28;20039;-78
2022/06/03 01:12:10;;;;;;;8.52;6.35;;;;;;;17.26;79.68;99266.63;4992972;28;20042;-78
2022/06/03 01:14:45;;;;;;;7.07;5.93;;;;;;;17.23;79.96;99262.38;4991263;28;20445;-78
2022/06/03 01:17:49;;;;;;;9.53;6.40;;;;;;;17.32;80.03;99258.56;4993191;28;20516;-78
2022/06/03 01:20:19;;;;;;;6.97;6.07;;;;;;;17.26;78.98;99264.84;4999430;28;20316;-77
2022/06/03 01:22:54;;;;;;;8.80;6.05;;;;;;;17.14;79.23;99252.22;5008171;28;20045;-76
2022/06/03 01:25:19;;;;;;;6.78;5.55;;;;;;;17.11;79.48;99247.09;5004880;28;20046;-79
2022/06/03 01:28:17;;;;;;;8.88;5.68;;;;;;;17.11;80.07;99247.09;4991728;28;20026;-79
2022/06/03 01:31:22;;;;;;;7.97;5.95;;;;;;;17.17;80.25;99233.75;5007999;28;20047;-79
2022/06/03 01:34:08;;;;;;;8.25;6.22;;;;;;;17.21;80.03;99227.47;4991292;28;20497;-78
2022/06/03 01:36:47;;;;;;;7.97;6.10;;;;;;;17.23;79.49;99220.44;4992953;28;20042;-79
2022/06/03 01:39:34;;;;;;;8.70;6.20;;;;;;;17.32;79.83;99223.59;4998186;28;20445;-78
2022/06/03 01:42:15;;;;;;;8.40;6.25;;;;;;;17.34;79.57;99232.25;4988581;28;20042;-79
2022/06/03 01:44:59;;;;;;;8.02;5.70;;;;;;;17.35;79.41;99233.97;4992453;28;20042;-78
2022/06/03 01:47:24;;;;;;;10.32;6.18;;;;;;;17.36;79.16;99231.28;4991159;28;20076;-78
2022/06/03 01:50:15;;;;;;;9.00;6.38;;;;;;;17.35;78.98;99239.22;4992884;28;20062;-78
2022/06/03 01:53:01;;;;;;;9.02;5.97;;;;;;;17.40;79.46;99237.25;4981440;28;20104;-79
2022/06/03 01:56:01;;;;;;;11.40;6.90;;;;;;;17.41;79.22;99238.97;4992242;28;20042;-79
2022/06/03 01:58:38;;;;;;;7.10;5.75;;;;;;;17.43;79.31;99238.00;5000889;28;20650;-79
2022/06/03 02:01:42;;;;;;;9.18;6.07;;;;;;;17.36;79.50;99227.81;5007664;28;20050;-78
2022/06/03 02:04:16;;;;;;;7.50;6.47;;;;;;;17.50;79.41;99233.34;4972169;28;20054;-79
2022/06/03 02:07:30;;;;;;;6.68;5.68;;;;;;;17.56;79.53;99238.38;4992475;28;20472;-79
2022/06/03 02:10:04;;;;;;;7.05;6.10;;;;;;;17.58;78.85;99239.16;4996914;28;20050;-79
2022/06/03 02:12:48;;;;;;;9.55;6.20;;;;;;;17.63;78.85;99244.22;5007048;28;20540;-78
2022/06/03 02:15:52;;;;;;;8.30;6.13;;;;;;;17.63;78.90;99241.59;4992172;28;20046;-78
2022/06/03 02:18:24;;;;;;;9.38;5.65;;;;;;;17.63;78.45;99249.47;4981814;28;20548;-78
2022/06/03 02:21:16;;;;;;;7.65;6.47;;;;;;;17.60;79.25;99249.63;4991789;28;20366;-78
2022/06/03 02:24:00;;;;;;;7.00;5.88;;;;;;;17.63;79.27;99245.09;4999018;28;20042;-78
2022/06/03 02:26:57;;;;;;;10.40;5.90;;;;;;;17.69;79.26;99260.59;4989031;28;20034;-78
2022/06/03 02:32:39;;;;;;;10.25;6.60;;;;;;;17.66;79.13;99254.63;4984654;28;20096;-78
2022/06/03 02:35:39;;;;;;;10.35;6.10;;;;;;;17.68;79.68;99264.09;5003941;28;20096;-78
2022/06/03 02:38:11;;;;;;;8.50;6.15;;;;;;;17.71;79.26;99271.03;4990642;28;20038;-78
2022/06/03 02:40:37;;;;;;;8.23;6.10;;;;;;;17.72;78.94;99278.81;4987312;28;20461;-79
2022/06/03 02:43:38;;;;;;;7.28;6.13;;;;;;;17.75;79.41;99270.03;5004025;28;20057;-79
2022/06/03 02:46:25;;;;;;;8.68;5.72;;;;;;;17.86;78.95;99285.31;4976419;28;20051;-78
2022/06/03 02:49:09;;;;;;;8.13;5.55;;;;;;;17.91;78.42;99292.09;4987700;28;20062;-78
2022/06/03 02:51:51;;;;;;;7.43;5.40;;;;;;;17.93;78.45;99278.94;4991558;28;20097;-78
2022/06/03 02:54:17;;;;;;;7.85;5.28;;;;;;;17.92;79.11;99274.59;4999932;28;20038;-79
2022/06/03 02:57:07;;;;;;;7.50;4.95;;;;;;;18.01;79.13;99279.47;4985686;28;20039;-79
2022/06/03 03:00:03;;;;;;;7.75;5.32;;;;;;;18.10;78.89;99278.22;4981051;28;20045;-79
2022/06/03 03:02:38;;;;;;;6.13;4.68;;;;;;;18.12;78.41;99264.13;4990247;28;20049;-79
2022/06/03 03:05:33;;;;;;;5.88;5.10;;;;;;;18.18;78.85;99282.25;5006713;28;20499;-80
2022/06/03 03:08:33;;;;;;;6.97;4.53;;;;;;;18.28;78.67;99286.22;4997425;28;20091;-78
2022/06/03 03:11:08;;;;;;;7.95;4.75;;;;;;;18.32;78.28;99270.31;4973709;28;20057;-79
2022/06/03 03:13:49;;;;;;;6.03;4.50;;;;;;;18.33;78.58;99278.16;5006652;28;20042;-79
2022/06/03 03:16:41;;;;;;;7.35;5.00;;;;;;;18.37;78.44;99284.09;4988373;28;20109;-79
2022/06/03 03:19:13;;;;;;;9.02;4.97;;;;;;;18.32;78.06;99275.56;5002862;28;20038;-78
2022/06/03 03:21:51;;;;;;;7.13;5.25;;;;;;;18.29;78.50;99273.94;5006932;28;20433;-78
2022/06/03 03:25:01;;;;;;;8.95;4.93;;;;;;;18.29;78.99;99266.06;5006700;28;20516;-79
2022/06/03 03:27:33;;;;;;;7.00;5.18;;;;;;;18.39;78.48;99256.03;5004581;28;20061;-78
2022/06/03 03:30:03;;;;;;;8.13;5.70;;;;;;;18.45;78.12;99246.09;5006556;28;20462;-79
2022/06/03 03:33:11;;;;;;;8.75;5.70;;;;;;;18.58;77.88;99243.81;5008738;28;20066;-79
2022/06/03 03:35:46;;;;;;;7.90;5.32;;;;;;;18.66;77.48;99243.47;4989379;28;20054;-81
2022/06/03 03:38:24;;;;;;;8.38;5.25;;;;;;;18.79;77.09;99240.28;4997723;28;20062;-80
2022/06/03 03:40:52;;;;;;;8.43;5.50;;;;;;;18.94;76.54;99248.41;5010354;28;20101;-80
2022/06/03 03:43:57;;;;;;;7.15;5.50;;;;;;;19.04;75.76;99237.38;4997178;28;20041;-79
2022/06/03 03:46:31;;;;;;;7.85;5.30;;;;;;;19.10;75.68;99238.03;4987350;28;20050;-79
2022/06/03 03:49:15;;;;;;;7.07;5.70;;;;;;;19.17;75.44;99248.22;5011318;28;20030;-79
2022/06/03 03:51:50;;;;;;;8.73;5.60;;;;;;;19.20;75.29;99244.59;5000343;28;20456;-80
2022/06/03 03:54:47;;;;;;;6.90;5.78;;;;;;;19.18;75.49;99251.69;5026352;28;20057;-80
2022/06/03 03:57:50;;;;;;;7.68;5.97;;;;;;;19.20;75.73;99255.97;5006158;28;20504;-79
2022/06/03 04:01:04;;;;;;;8.07;6.00;;;;;;;19.39;74.94;99255.13;5000885;28;20061;-79
2022/06/03 04:03:51;;;;;;;7.50;4.93;;;;;;;19.49;74.56;99251.97;4991922;28;20100;-79
2022/06/03 04:06:43;;;;;;;8.95;6.68;;;;;;;19.60;74.08;99248.84;4996147;28;20041;-79
2022/06/03 04:09:21;;;;;;;10.38;6.03;;;;;;;19.64;73.73;99270.63;5004770;28;20065;-79
2022/06/03 04:12:05;;;;;;;9.30;5.85;;;;;;;19.70;73.79;99259.78;5004736;28;20040;-79
2022/06/03 04:14:53;;;;;;;8.57;5.93;;;;;;;19.74;73.43;99267.47;5000307;28;20092;-79
2022/06/03 04:17:34;;;;;;;8.23;5.72;;;;;;;19.75;73.07;99252.56;5015219;28;20050;-79
2022/06/03 04:20:08;;;;;;;9.32;5.97;;;;;;;19.74;72.30;99270.09;5011937;28;20047;-79
2022/06/03 04:22:49;;;;;;;10.90;6.70;;;;;;;19.66;72.68;99264.38;4994533;28;20033;-80
2022/06/03 04:25:41;;;;;;;7.93;6.22;;;;;;;19.61;73.04;99263.75;4994675;28;20046;-79
2022/06/03 04:28:43;;;;;;;8.80;5.95;;;;;;;19.60;73.36;99261.13;4994199;28;20125;-79
2022/06/03 04:31:46;;;;;;;9.60;5.93;;;;;;;19.53;73.61;99263.22;5006445;28;20065;-79
2022/06/03 04:34:13;;;;;;;8.27;6.05;;;;;;;19.54;73.42;99272.81;5004025;28;20135;-80
2022/06/03 04:37:16;;;;;;;10.23;6.70;;;;;;;19.55;73.60;99272.72;4995939;28;20405;-79
2022/06/03 04:39:56;;;;;;;8.10;6.30;;;;;;;19.50;73.50;99285.25;4996692;28;20488;-80
2022/06/03 04:42:56;;;;;;;8.50;6.50;;;;;;;19.46;74.15;99298.59;5006929;28;20053;-79
2022/06/03 04:45:53;;;;;;;10.13;6.70;;;;;;;19.42;74.76;99310.19;5012823;28;20030;-80
2022/06/03 04:48:40;;;;;;;9.00;7.13;;;;;;;19.26;76.90;99297.75;4999734;28;20535;-80
2022/06/03 04:51:33;;;;;;;12.75;7.38;;;;;;;19.14;78.92;99300.91;4983822;28;20089;-80
2022/06/03 04:54:17;;;;;;;10.38;7.78;;;;;;;18.95;79.37;99281.63;5006657;28;20129;-80
2022/06/03 04:57:18;;;;;;;7.55;6.50;;;;;;;18.85;80.19;99285.59;4992400;28;20593;-81
2022/06/03 05:00:05;;;;;;;8.35;6.95;;;;;;;18.81;81.26;99279.63;4999969;28;20049;-79
2022/06/03 05:03:20;;;;;;;10.18;6.43;;;;;;;18.67;81.66;99279.34;5008336;28;20489;-79
2022/06/03 05:06:23;;;;;;;8.55;6.85;;;;;;;18.69;81.88;99278.41;4991461;28;20046;-79
2022/06/03 05:09:08;;;;;;;10.05;7.03;;;;;;;18.69;82.43;99278.41;5008517;28;20050;-80
2022/06/03 05:11:57;;;;;;;10.02;7.75;;;;;;;18.64;82.90;99272.44;4983376;28;20030;-79
2022/06/03 05:14:31;;;;;;;9.88;7.25;;;;;;;18.59;83.23;99266.53;4992747;28;20052;-79
2022/06/03 05:17:21;;;;;;;10.00;7.45;;;;;;;18.59;83.91;99260.41;4993199;28;20042;-80
2022/06/03 05:20:08;;;;;;;9.68;7.60;;;;;;;18.64;84.15;99261.06;4991795;28;20064;-80
2022/06/03 05:22:55;;;;;;;11.18;7.88;;;;;;;18.66;83.83;99254.84;5004639;28;20038;-79
2022/06/03 05:25:26;;;;;;;;;;;;;;;18.79;84.35;99256.03;5000719;28;20073;-80
2022/06/03 05:28:07;;;;;;;11.20;7.30;;;;;;;18.84;83.71;99252.38;4991380;28;20369;-79
2022/06/03 05:31:05;;;;;;;10.15;7.72;;;;;;;18.86;84.10;99258.41;4993116;28;20038;-80
2022/06/03 05:34:05;;;;;;;11.48;8.38;;;;;;;18.82;83.73;99254.19;5005732;28;20042;-79
2022/06/03 05:36:42;;;;;;;10.02;8.45;;;;;;;18.81;83.90;99258.59;4992776;28;20030;-79
2022/06/03 05:39:44;;;;;;;8.85;7.50;;;;;;;18.83;84.24;99269.91;5007977;28;20058;-81
2022/06/03 05:42:29;;;;;;;11.05;8.32;;;;;;;18.81;84.02;99263.00;4991431;28;20034;-80
2022/06/03 05:45:22;;;;;;;11.38;9.02;;;;;;;18.87;84.48;99267.97;4992725;28;20157;-80
2022/06/03 05:48:08;;;;;;;11.43;9.48;;;;;;;18.90;84.17;99267.84;4992587;28;20038;-80
2022/06/03 05:51:04;;;;;;;23.27;18.38;;;;;;;18.93;84.59;99265.09;5006512;28;20504;-82
2022/06/03 05:53:44;;;;;;;13.17;10.80;;;;;;;18.98;84.41;99258.72;4992786;28;20053;-81
2022/06/03 05:56:28;;;;;;;11.55;9.13;;;;;;;19.06;84.01;99263.63;4988511;28;20115;-81
2022/06/03 05:59:24;;;;;;;10.38;8.50;;;;;;;19.07;83.34;99257.44;4990248;28;20053;-80
2022/06/03 06:01:53;;;;;;;13.25;7.47;;;;;;;19.11;82.42;99260.78;4993263;28;20100;-80
2022/06/03 06:04:27;;;;;;;8.82;6.50;;;;;;;19.12;81.87;99258.09;4992195;28;20033;-80
2022/06/03 06:07:14;;;;;;;7.95;6.53;;;;;;;19.17;81.24;99260.50;4992610;28;20060;-80
2022/06/03 06:10:02;;;;;;;7.90;5.88;;;;;;;19.18;80.74;99252.53;4992663;28;20038;-81
2022/06/03 06:12:56;;;;;;;8.50;5.80;;;;;;;19.27;80.38;99257.38;5007284;28;20093;-80
2022/06/03 06:15:48;;;;;;;7.82;5.82;;;;;;;19.27;80.43;99265.25;5005090;28;20502;-80
2022/06/03 06:18:29;;;;;;;8.10;5.82;;;;;;;19.28;79.89;99264.34;4997262;28;20493;-80
2022/06/03 06:21:04;;;;;;;9.70;6.43;;;;;;;19.29;79.82;99265.22;4992530;28;20449;-81
2022/06/03 06:23:56;;;;;;;8.68;5.65;;;;;;;19.36;79.35;99268.41;4992847;28;20041;-82
2022/06/03 06:26:44;;;;;;;7.53;6.50;;;;;;;19.42;79.98;99266.31;5007383;28;20620;-82
2022/06/03 06:29:28;;;;;;;5.97;5.35;;;;;;;19.49;79.36;99266.91;5005268;28;20125;-79
2022/06/03 06:32:12;;;;;;;7.03;5.10;;;;;;;19.52;78.59;99257.09;4992265;28;20057;-80
2022/06/03 06:34:56;;;;;;;7.13;5.35;;;;;;;19.69;78.15;99258.09;4991448;28;20129;-80
2022/06/03 06:37:22;;;;;;;6.30;5.18;;;;;;;19.81;77.82;99262.78;5000353;28;20038;-80
2022/06/03 06:39:47;;;;;;;6.10;4.80;;;;;;;19.89;76.66;99270.31;5007537;28;20397;-81
2022/06/03 06:42:20;;;;;;;5.80;5.05;;;;;;;19.95;75.91;99270.00;4988404;28;20121;-80
2022/06/03 06:45:20;;;;;;;5.25;4.65;;;;;;;19.90;75.54;99272.88;5005144;28;20045;-82
2022/06/03 06:48:16;;;;;;;8.73;5.10;;;;;;;19.72;74.63;99264.06;5002509;28;20042;-81
2022/06/03 06:50:48;;;;;;;8.18;4.78;;;;;;;19.72;74.60;99279.00;5014137;28;20681;-80
2022/06/03 06:53:45;;;;;;;6.38;4.90;;;;;;;19.51;75.36;99265.88;5000888;28;20049;-81
2022/06/03 06:56:45;;;;;;;6.47;4.95;;;;;;;19.43;76.07;99282.97;5000421;28;20046;-79
2022/06/03 06:59:15;;;;;;;7.00;5.25;;;;;;;19.28;76.59;99287.16;4991831;28;20061;-80
2022/06/03 07:01:49;;;;;;;9.10;5.00;;;;;;;19.11;77.70;99287.94;4979912;28;20039;-82
2022/06/03 07:04:19;;;;;;;6.68;5.30;;;;;;;19.05;78.43;99290.81;4975287;28;20045;-79
2022/06/03 07:07:12;;;;;;;9.05;5.70;;;;;;;18.79;78.93;99263.94;5007447;28;20505;-83
2022/06/03 07:09:45;;;;;;;7.53;5.50;;;;;;;18.86;79.73;99280.28;4980884;28;20050;-80
2022/06/03 07:12:15;;;;;;;7.53;4.90;;;;;;;18.96;79.21;99293.84;5009976;28;20050;-80
2022/06/03 07:15:07;;;;;;;6.35;5.28;;;;;;;18.99;78.73;99299.84;5011460;28;20030;-80
2022/06/03 07:20:45;;;;;;;6.68;4.43;;;;;;;18.91;77.82;99317.72;4995645;28;20507;-79
2022/06/03 07:23:42;;;;;;;7.13;4.60;;;;;;;18.91;77.33;99312.47;5011164;28;20046;-81
2022/06/03 07:26:17;;;;;;;6.10;4.60;;;;;;;19.03;77.62;99317.19;5011921;28;20125;-81
2022/06/03 07:29:04;;;;;;;6.10;4.60;;;;;;;19.16;77.44;99322.75;5010772;28;20041;-80
2022/06/03 07:31:44;;;;;;;5.15;4.38;;;;;;;19.36;77.01;99313.13;5011142;28;20449;-80
2022/06/03 07:34:26;;;;;;;5.18;4.32;;;;;;;19.48;76.00;99317.81;4995544;28;20042;-80
2022/06/03 07:37:03;;;;;;;7.13;4.30;;;;;;;19.56;74.80;99331.44;4997599;28;20112;-80
2022/06/03 07:39:52;;;;;;;5.50;4.25;;;;;;;19.52;73.80;99322.03;5011045;28;20093;-84
2022/06/03 07:42:50;;;;;;;7.75;4.40;;;;;;;19.63;75.09;99325.03;5004386;28;20085;-80
2022/06/03 07:45:35;;;;;;;4.38;3.75;;;;;;;19.78;73.88;99337.47;4992340;28;20049;-79
2022/06/03 07:48:02;;;;;;;5.18;4.00;;;;;;;19.63;73.54;99338.19;4994731;28;20042;-81
2022/06/03 07:50:29;;;;;;;6.70;3.83;;;;;;;19.68;72.26;99341.44;5023698;28;20050;-80
2022/06/03 07:52:59;;;;;;;5.50;4.20;;;;;;;19.81;70.97;99344.38;4994671;28;20408;-80
2022/06/03 07:55:27;;;;;;;4.88;4.32;;;;;;;19.89;69.96;99344.88;5010789;28;20396;-80
2022/06/03 07:57:57;;;;;;;7.18;4.40;;;;;;;20.04;68.79;99353.81;4978738;28;20077;-81
2022/06/03 08:00:23;;;;;;;5.15;4.65;;;;;;;20.18;68.88;99355.78;4994744;28;20042;-83
2022/06/03 08:03:15;;;;;;;9.45;4.65;;;;;;;20.30;69.33;99356.06;4994454;28;20133;-80
2022/06/03 08:05:43;;;;;;;5.35;4.75;;;;;;;20.52;68.85;99360.28;4974868;28;20042;-83
2022/06/03 08:10:56;;;;;;;10.98;4.78;;;;;;;21.35;65.53;99354.28;4994590;28;20038;-80
2022/06/03 08:13:22;;;;;;;6.35;4.55;;;;;;;21.67;64.37;99351.69;4994346;28;20410;-80
2022/06/03 08:15:53;;;;;;;5.55;4.22;;;;;;;22.06;62.63;99359.19;4994033;28;20038;-80
2022/06/03 08:18:18;;;;;;;6.07;4.72;;;;;;;21.99;60.52;99366.63;5010690;28;20042;-79
2022/06/03 08:20:51;;;;;;;7.50;4.63;;;;;;;21.65;60.61;99374.69;4994305;28;20038;-79
2022/06/03 08:23:18;;;;;;;5.57;4.10;;;;;;;21.65;60.32;99370.25;4994006;28;20409;-80
2022/06/03 08:25:44;;;;;;;6.70;4.20;;;;;;;21.72;60.02;99381.34;5010016;28;20120;-79
2022/06/03 08:28:13;;;;;;;6.60;4.30;;;;;;;21.68;60.57;99395.66;5010260;28;20441;-80
2022/06/03 08:30:39;;;;;;;5.55;4.28;;;;;;;21.75;59.74;99392.56;5010914;28;20026;-79
2022/06/03 08:33:06;;;;;;;6.10;4.25;;;;;;;21.71;59.40;99398.94;4995186;28;20073;-81
2022/06/03 08:35:34;;;;;;;5.80;3.95;;;;;;;21.35;60.32;99403.53;5010210;28;20057;-80
2022/06/03 08:38:27;;;;;;;5.80;3.55;;;;;;;21.38;60.75;99409.53;4993745;28;20042;-84
2022/06/03 08:40:57;;;;;;;6.13;4.10;;;;;;;21.29;60.69;99409.97;4994614;28;20460;-80
2022/06/03 08:43:26;;;;;;;5.55;4.38;;;;;;;20.85;61.48;99415.75;5007223;28;20106;-80
2022/06/03 08:46:11;;;;;;;5.90;4.22;;;;;;;20.84;61.13;99429.00;4995228;28;20038;-79
2022/06/03 08:48:44;;;;;;;8.50;5.03;;;;;;;20.86;61.52;99424.50;5010020;28;20038;-80
2022/06/03 08:51:24;;;;;;;5.88;3.95;;;;;;;20.87;61.60;99439.41;5009770;28;20058;-80
2022/06/03 08:53:54;;;;;;;7.28;4.88;;;;;;;20.92;60.72;99438.22;4977263;28;20081;-80
2022/06/03 08:56:26;;;;;;;7.70;3.90;;;;;;;20.88;61.19;99441.94;4993588;28;20046;-81
2022/06/03 08:59:05;;;;;;;7.15;4.47;;;;;;;20.78;60.80;99441.53;4993886;28;20405;-81
2022/06/03 09:01:36;;;;;;;6.80;4.28;;;;;;;20.56;61.26;99448.78;4985030;28;20097;-80
2022/06/03 09:04:14;;;;;;;9.27;3.88;;;;;;;20.94;61.03;99456.63;5000527;28;20113;-80
2022/06/03 09:07:01;;;;;;;5.95;3.92;;;;;;;21.11;60.16;99453.13;4986694;28;20042;-80
2022/06/03 09:10:04;;;;;;;6.15;4.50;;;;;;;21.35;58.63;99451.94;5006557;28;20121;-86
2022/06/03 09:12:30;;;;;;;5.57;3.65;;;;;;;21.67;57.04;99450.25;4993903;28;20038;-82
2022/06/03 09:15:08;;;;;;;6.60;4.00;;;;;;;22.06;56.44;99455.16;4994572;28;20048;-82
2022/06/03 09:17:41;;;;;;;4.50;3.92;;;;;;;21.99;55.80;99466.13;5009629;28;20042;-80
2022/06/03 09:20:19;;;;;;;5.22;3.67;;;;;;;22.16;55.11;99457.31;5004199;28;20477;-82
2022/06/03 09:22:45;;;;;;;5.35;3.33;;;;;;;22.61;55.12;99461.84;5009845;28;20400;-81
2022/06/03 09:25:11;;;;;;;4.10;3.30;;;;;;;22.78;52.01;99447.66;4977043;28;20037;-80
2022/06/03 09:27:37;;;;;;;4.22;3.40;;;;;;;22.80;52.37;99470.41;5019499;28;20050;-80
2022/06/03 09:30:04;;;;;;;4.25;2.90;;;;;;;22.82;52.31;99473.84;4991754;28;20499;-80
2022/06/03 09:32:34;;;;;;;3.72;3.30;;;;;;;23.03;51.23;99484.97;5003036;28;20049;-80
2022/06/03 09:35:01;;;;;;;4.97;2.40;;;;;;;23.17;51.53;99492.13;5022858;28;20042;-80
2022/06/03 09:37:32;;;;;;;5.85;2.90;;;;;;;23.52;49.42;99487.38;5020167;28;20034;-80
2022/06/03 09:39:57;;;;;;;7.80;2.90;;;;;;;23.81;48.60;99474.19;5006937;28;20049;-79
2022/06/03 09:42:23;;;;;;;4.15;3.22;;;;;;;24.17;47.91;99486.94;4988561;28;20026;-81
2022/06/03 09:44:50;;;;;;;7.57;2.92;;;;;;;24.02;47.88;99479.97;5021261;28;20041;-79
2022/06/03 09:47:18;;;;;;;4.85;3.00;;;;;;;23.42;49.22;99488.03;5008212;28;20038;-79
2022/06/03 09:49:48;;;;;;;5.97;3.03;;;;;;;23.29;49.99;99496.69;4997272;28;20474;-81
2022/06/03 09:52:16;;;;;;;9.73;3.08;;;;;;;22.76;51.13;99500.59;5005128;28;20037;-79
2022/06/03 09:54:42;;;;;;;5.60;3.50;;;;;;;22.39;51.55;99515.03;4964263;28;20403;-78
2022/06/03 09:57:24;;;;;;;4.90;3.00;;;;;;;21.78;53.29;99508.59;5005293;28;20117;-79
2022/06/03 09:59:55;;;;;;;5.40;3.30;;;;;;;21.64;54.35;99536.66;4989007;28;20043;-79
2022/06/03 10:02:20;;;;;;;5.75;3.30;;;;;;;21.87;51.97;99533.66;5006077;28;20088;-80
2022/06/03 10:04:46;;;;;;;4.70;2.90;;;;;;;21.81;52.21;99532.22;5007327;28;20034;-80
2022/06/03 10:07:12;;;;;;;4.60;3.30;;;;;;;21.49;52.46;99538.31;4991484;28;20461;-82
2022/06/03 10:17:58;;;;;;;6.47;3.50;;;;;;;21.04;54.36;99537.00;4991628;28;20417;-85
2022/06/03 10:20:25;;;;;;;3.97;3.15;;;;;;;21.02;54.96;99544.09;5008280;28;20073;-82
2022/06/03 10:22:51;;;;;;;4.35;2.75;;;;;;;21.72;54.19;99542.41;4992901;28;20065;-82
2022/06/03 10:25:17;;;;;;;5.75;2.78;;;;;;;22.41;51.90;99551.97;4956651;28;20035;-80
2022/06/03 10:27:44;;;;;;;5.10;3.00;;;;;;;22.76;50.39;99521.78;5004622;28;20568;-79
2022/06/03 10:30:11;;;;;;;4.43;3.00;;;;;;;23.16;49.29;99542.50;5004946;28;20034;-81
2022/06/03 10:32:37;;;;;;;3.40;2.60;;;;;;;22.86;49.20;99555.63;5003482;28;20038;-80
2022/06/03 10:35:14;;;;;;;5.90;2.40;;;;;;;22.53;50.40;99546.00;4989172;28;20045;-83
2022/06/03 10:37:50;;;;;;;4.82;2.83;;;;;;;22.28;50.35;99538.56;4967505;28;20050;-80
2022/06/03 10:40:16;;;;;;;4.85;2.88;;;;;;;22.02;50.32;99545.19;4991829;28;20048;-80
2022/06/03 10:42:46;;;;;;;4.97;3.00;;;;;;;21.83;50.97;99532.97;4991993;28;20125;-80
2022/06/03 10:45:12;;;;;;;5.75;2.20;;;;;;;22.22;49.72;99537.13;4982556;28;20144;-80
2022/06/03 10:47:39;;;;;;;2.92;2.30;;;;;;;22.41;48.42;99546.69;4995831;28;20034;-79
2022/06/03 10:50:33;;;;;;;4.57;2.15;;;;;;;22.67;47.88;99561.94;5011148;28;20394;-80
2022/06/03 11:01:33;;;;;;;3.53;2.28;;;;;;;22.25;49.78;99571.28;5003633;28;20070;-79
2022/06/03 11:03:59;;;;;;;5.03;2.20;;;;;;;22.52;49.13;99568.09;4992673;28;20382;-79
2022/06/03 11:06:36;;;;;;;4.20;2.30;;;;;;;23.36;48.50;99576.59;4991988;28;20038;-79
2022/06/03 11:09:06;;;;;;;5.03;2.28;;;;;;;23.92;45.65;99588.31;5011342;28;20117;-80
2022/06/03 11:11:43;;;;;;;2.78;2.05;;;;;;;24.11;44.83;99576.59;4995014;28;20126;-80
2022/06/03 11:14:30;;;;;;;2.60;2.05;;;;;;;24.17;44.44;99581.50;5011032;28;20073;-86
2022/06/03 11:17:16;;;;;;;3.83;2.10;;;;;;;24.15;44.49;99576.31;5004254;28;20049;-82
2022/06/03 11:19:46;;;;;;;3.03;1.70;;;;;;;24.06;43.68;99576.88;5007052;28;20046;-82
2022/06/03 11:22:27;;;;;;;4.95;2.00;;;;;;;24.16;43.38;99575.38;4963239;28;20042;-81
2022/06/03 11:25:14;;;;;;;3.45;1.92;;;;;;;24.00;43.55;99593.13;5007197;28;20049;-79
2022/06/03 11:27:50;;;;;;;3.47;1.73;;;;;;;23.72;43.65;99605.38;5007406;28;20101;-80
2022/06/03 11:30:31;;;;;;;;;;;;;;;23.77;43.36;99613.91;5007494;28;20504;-81
2022/06/03 11:33:02;;;;;;;4.82;1.60;;;;;;;23.93;42.97;99607.72;5011415;28;19917;-81
2022/06/03 11:35:39;;;;;;;4.57;1.42;;;;;;;24.52;41.71;99595.28;4996528;28;20038;-82
2022/06/03 11:38:07;;;;;;;4.43;1.80;;;;;;;24.66;41.14;99621.78;4979077;28;20054;-81
2022/06/03 11:40:40;;;;;;;4.68;1.98;;;;;;;24.41;42.38;99621.59;4995432;28;20073;-83
2022/06/03 11:43:14;;;;;;;5.00;1.73;;;;;;;24.90;41.63;99613.22;5010873;28;20061;-81
2022/06/03 11:45:48;;;;;;;5.22;1.60;;;;;;;25.12;41.05;99634.81;4979146;28;20057;-81
2022/06/03 11:48:29;;;;;;;4.53;1.83;;;;;;;24.92;41.72;99627.22;4993986;28;20084;-81
2022/06/03 11:50:55;;;;;;;3.45;1.52;;;;;;;24.94;41.46;99612.06;4966844;28;20509;-81
2022/06/03 11:53:24;;;;;;;2.45;1.55;;;;;;;24.65;42.25;99625.38;4991783;28;20089;-82
2022/06/03 11:55:52;;;;;;;2.92;1.63;;;;;;;24.22;42.75;99625.34;4995467;28;20069;-82
2022/06/03 11:58:27;;;;;;;2.88;1.63;;;;;;;23.96;41.83;99626.06;4991014;28;20121;-84
2022/06/03 12:01:02;;;;;;;5.93;1.98;;;;;;;23.92;42.45;99621.91;4978289;28;20501;-81
2022/06/03 12:03:35;;;;;;;3.15;1.60;;;;;;;23.68;43.40;99627.69;5007777;28;20046;-82
2022/06/03 12:06:11;;;;;;;4.22;1.55;;;;;;;23.65;43.67;99629.69;4993793;28;20517;-84
2022/06/03 12:08:55;;;;;;;6.35;1.73;;;;;;;23.78;42.64;99636.81;5010110;28;20046;-82
2022/06/03 12:14:36;;;;;;;3.97;1.40;;;;;;;24.07;42.16;99658.94;4995279;28;20482;-80
2022/06/03 12:17:11;;;;;;;7.50;1.80;;;;;;;23.75;42.85;99636.16;4991146;28;20043;-81
2022/06/03 12:19:47;;;;;;;2.92;1.90;;;;;;;23.90;42.82;99656.44;4991834;28;20050;-81
2022/06/03 12:22:18;;;;;;;2.97;1.50;;;;;;;24.61;41.17;99662.81;4991109;28;20046;-84
2022/06/03 12:24:48;;;;;;;5.45;2.00;;;;;;;24.51;40.43;99646.59;4993847;28;20097;-80
2022/06/03 12:27:17;;;;;;;4.63;1.70;;;;;;;24.49;41.45;99659.09;4978250;28;20038;-80
2022/06/03 12:30:10;;;;;;;4.47;1.70;;;;;;;24.29;41.60;99652.34;5010777;28;20050;-81
2022/06/03 12:32:36;;;;;;;2.78;1.58;;;;;;;24.61;41.76;99674.28;4993436;28;20100;-81
2022/06/03 12:35:39;;;;;;;2.88;1.90;;;;;;;25.37;40.56;99681.00;4994022;28;20082;-81
2022/06/03 12:38:21;;;;;;;4.07;2.00;;;;;;;25.63;40.20;99680.16;5010272;28;20035;-80
2022/06/03 12:40:47;;;;;;;3.42;1.77;;;;;;;25.62;38.82;99667.81;5009945;28;20039;-81
2022/06/03 12:43:28;;;;;;;5.38;1.90;;;;;;;25.07;39.53;99689.97;4993720;28;20036;-80
2022/06/03 12:46:09;;;;;;;4.45;1.70;;;;;;;24.58;39.76;99685.06;4994522;28;20080;-80
2022/06/03 12:48:35;;;;;;;4.15;1.63;;;;;;;23.83;41.32;99690.38;5001588;28;20116;-80
2022/06/03 12:51:09;;;;;;;5.85;2.00;;;;;;;23.66;42.56;99687.84;4990192;28;20094;-81
2022/06/03 12:53:37;;;;;;;2.40;1.70;;;;;;;23.84;42.32;99683.28;5006636;28;20189;-84
2022/06/03 12:56:04;;;;;;;2.45;1.77;;;;;;;24.28;41.73;99678.00;5002369;28;20121;-80
2022/06/03 12:58:43;;;;;;;4.15;1.80;;;;;;;24.76;41.05;99694.53;4991459;28;20454;-83
2022/06/03 13:01:11;;;;;;;4.05;2.00;;;;;;;24.78;40.27;99684.66;4975189;28;20414;-80